Time;durP1;ratioP1;P1;durP2;ratioP2;P2;SDS_P1;SDS_P2;PMS_P1;PMS_P2;Temp;Humidity;BMP_temperature;BMP_pressure;BME280_temperature;BME280_humidity;BME280_pressure;Samples;Min_cycle;Max_cycle;Signal;HPM_P1;HPM_P2
2023/01/21 00:01:12;;;;;;;226.40;68.83;;;;;;;-0.83;100.00;102668.13;4992718;28;20453;-44
2023/01/21 00:03:40;;;;;;;191.13;59.57;;;;;;;-0.85;100.00;102667.38;4992417;28;20473;-47
2023/01/21 00:06:09;;;;;;;419.43;92.57;;;;;;;-0.85;100.00;102676.09;4991828;28;20505;-45
2023/01/21 00:08:38;;;;;;;550.77;114.93;;;;;;;-0.86;100.00;102663.06;4992798;28;20440;-46
2023/01/21 00:11:07;;;;;;;284.67;80.03;;;;;;;-0.89;100.00;102677.16;4992442;28;20952;-45
2023/01/21 00:13:35;;;;;;;250.60;66.47;;;;;;;-0.94;100.00;102676.53;4992703;28;20422;-48
2023/01/21 00:16:04;;;;;;;564.67;111.60;;;;;;;-0.96;100.00;102682.78;4991810;28;20435;-47
2023/01/21 00:18:33;;;;;;;453.63;99.37;;;;;;;-0.96;100.00;102694.13;4992489;28;20458;-48
2023/01/21 00:21:01;;;;;;;342.93;76.37;;;;;;;-0.95;100.00;102685.31;4992765;28;20493;-49
2023/01/21 00:23:29;;;;;;;600.17;123.40;;;;;;;-0.91;100.00;102691.25;4992695;28;20528;-50
2023/01/21 00:25:59;;;;;;;248.13;67.90;;;;;;;-0.93;100.00;102691.34;4992224;28;20878;-47
2023/01/21 00:28:32;;;;;;;217.13;76.33;;;;;;;-0.93;100.00;102698.34;4992140;28;20442;-47
2023/01/21 00:31:00;;;;;;;375.37;93.83;;;;;;;-0.92;100.00;102694.78;4992249;28;21023;-45
2023/01/21 00:33:29;;;;;;;159.83;66.87;;;;;;;-0.94;100.00;102694.03;4992421;28;20528;-49
2023/01/21 00:35:59;;;;;;;188.80;65.13;;;;;;;-1.01;100.00;102703.09;4992330;28;20520;-51
2023/01/21 00:38:27;;;;;;;205.40;67.33;;;;;;;-1.01;100.00;102697.84;5011208;28;20456;-47
2023/01/21 00:41:01;;;;;;;73.30;55.50;;;;;;;-1.00;100.00;102696.94;5011622;28;20429;-50
2023/01/21 00:43:29;;;;;;;86.00;51.30;;;;;;;-1.01;100.00;102708.31;5011734;28;20429;-45
2023/01/21 00:45:57;;;;;;;118.37;55.67;;;;;;;-1.02;100.00;102722.38;5011273;28;20480;-44
2023/01/21 00:48:25;;;;;;;124.23;55.83;;;;;;;-1.05;100.00;102718.13;5013671;28;20556;-44
2023/01/21 00:50:54;;;;;;;213.30;75.63;;;;;;;-1.05;100.00;102712.03;5015533;28;20431;-44
2023/01/21 00:53:22;;;;;;;435.40;99.83;;;;;;;-1.06;100.00;102719.03;5015659;28;20433;-45
2023/01/21 00:55:50;;;;;;;84.53;53.33;;;;;;;-1.06;100.00;102728.66;5015282;28;20433;-45
2023/01/21 00:58:19;;;;;;;71.00;50.10;;;;;;;-1.03;100.00;102734.59;4996166;28;20549;-45
2023/01/21 01:00:47;;;;;;;77.57;50.37;;;;;;;-1.04;100.00;102735.50;4995761;28;20931;-44
2023/01/21 01:03:15;;;;;;;312.23;83.17;;;;;;;-1.06;100.00;102728.66;4995594;28;20437;-47
2023/01/21 01:05:43;;;;;;;328.73;87.13;;;;;;;-1.11;100.00;102741.97;4995418;28;20480;-48
2023/01/21 01:08:10;;;;;;;244.10;74.80;;;;;;;-1.13;100.00;102744.66;4995069;28;20470;-44
2023/01/21 01:10:38;;;;;;;100.83;53.80;;;;;;;-1.15;100.00;102751.75;4995412;28;20442;-45
2023/01/21 01:13:06;;;;;;;101.90;56.00;;;;;;;-1.18;100.00;102751.88;4995721;28;20437;-46
2023/01/21 01:15:35;;;;;;;90.37;53.50;;;;;;;-1.23;100.00;102763.50;4995390;28;20843;-44
2023/01/21 01:18:02;;;;;;;80.47;49.47;;;;;;;-1.30;100.00;102755.09;4994853;28;20478;-44
2023/01/21 01:20:30;;;;;;;111.90;58.30;;;;;;;-1.35;100.00;102753.59;4995392;28;21197;-44
2023/01/21 01:22:58;;;;;;;57.53;48.93;;;;;;;-1.39;100.00;102763.34;4995328;28;20444;-44
2023/01/21 01:25:25;;;;;;;55.33;49.43;;;;;;;-1.43;100.00;102774.03;4994911;28;20484;-46
2023/01/21 01:27:53;;;;;;;56.20;46.80;;;;;;;-1.48;100.00;102770.78;4994849;28;21005;-44
2023/01/21 01:30:20;;;;;;;108.80;55.80;;;;;;;-1.52;100.00;102779.69;4995367;28;20438;-48
2023/01/21 01:32:50;;;;;;;172.90;63.90;;;;;;;-1.55;100.00;102780.66;4995168;28;20453;-45
2023/01/21 01:35:17;;;;;;;90.53;52.77;;;;;;;-1.57;100.00;102781.66;4994986;28;20425;-44
2023/01/21 01:37:45;;;;;;;102.70;53.77;;;;;;;-1.60;100.00;102785.25;4994414;28;20461;-47
2023/01/21 01:40:13;;;;;;;59.53;49.60;;;;;;;-1.60;100.00;102787.88;4995147;28;20441;-45
2023/01/21 01:42:41;;;;;;;67.07;52.40;;;;;;;-1.58;100.00;102793.06;4995153;28;20434;-44
2023/01/21 01:45:19;;;;;;;52.77;47.00;;;;;;;-1.54;100.00;102795.47;4994719;28;20477;-45
2023/01/21 01:47:56;;;;;;;55.70;49.57;;;;;;;-1.47;100.00;102798.66;4994403;28;20834;-45
2023/01/21 01:50:27;;;;;;;51.57;46.37;;;;;;;-1.41;100.00;102804.47;4994955;28;20843;-48
2023/01/21 01:52:55;;;;;;;55.43;48.10;;;;;;;-1.34;100.00;102816.34;4995110;28;20434;-45
2023/01/21 01:55:24;;;;;;;51.23;46.17;;;;;;;-1.30;100.00;102814.44;4994642;28;20816;-46
2023/01/21 01:57:54;;;;;;;50.67;45.60;;;;;;;-1.28;100.00;102808.19;4994223;28;20478;-46
2023/01/21 02:00:23;;;;;;;49.97;45.13;;;;;;;-1.27;100.00;102809.06;4994234;28;20488;-44
2023/01/21 02:05:40;;;;;;;51.20;46.00;;;;;;;-1.31;100.00;102818.81;4994338;28;20547;-44
2023/01/21 02:08:09;;;;;;;50.17;45.13;;;;;;;-1.33;100.00;102819.81;4994025;28;20473;-44
2023/01/21 02:10:37;;;;;;;53.57;47.80;;;;;;;-1.33;100.00;102825.88;4994431;28;20477;-44
2023/01/21 02:13:04;;;;;;;54.37;48.50;;;;;;;-1.31;100.00;102828.41;4994454;28;20438;-45
2023/01/21 02:15:40;;;;;;;52.03;46.67;;;;;;;-1.29;100.00;102832.69;4994304;28;20489;-44
2023/01/21 02:18:17;;;;;;;48.00;43.43;;;;;;;-1.28;100.00;102831.75;4993878;28;20461;-44
2023/01/21 02:21:06;;;;;;;50.90;46.20;;;;;;;-1.29;100.00;102830.06;4994386;28;20438;-45
2023/01/21 02:23:59;;;;;;;46.97;42.57;;;;;;;-1.31;100.00;102833.66;4994229;28;20529;-44
2023/01/21 02:27:04;;;;;;;50.10;45.50;;;;;;;-1.34;100.00;102839.03;4993535;28;20528;-44
2023/01/21 02:30:01;;;;;;;50.43;45.43;;;;;;;-1.40;100.00;102842.78;4994260;28;20440;-47
2023/01/21 02:33:01;;;;;;;50.70;45.97;;;;;;;-1.45;100.00;102836.91;4993845;28;20446;-46
2023/01/21 02:35:39;;;;;;;48.17;43.60;;;;;;;-1.48;100.00;102844.03;4973661;28;20441;-47
2023/01/21 02:38:12;;;;;;;52.67;47.20;;;;;;;-1.53;100.00;102846.88;4993303;28;20500;-48
2023/01/21 02:40:51;;;;;;;51.13;46.33;;;;;;;-1.54;100.00;102846.94;4994007;28;20430;-44
2023/01/21 02:43:29;;;;;;;50.73;45.83;;;;;;;-1.55;100.00;102840.00;4994101;28;20437;-46
2023/01/21 02:46:03;;;;;;;49.17;44.20;;;;;;;-1.58;100.00;102838.34;4993528;28;20497;-44
2023/01/21 02:48:35;;;;;;;50.00;45.03;;;;;;;-1.60;100.00;102839.34;4993549;28;20521;-47
2023/01/21 02:51:05;;;;;;;49.70;44.90;;;;;;;-1.61;100.00;102850.75;4993687;28;20924;-47
2023/01/21 02:53:34;;;;;;;48.83;44.00;;;;;;;-1.63;100.00;102856.03;4993913;28;20430;-44
2023/01/21 02:56:07;;;;;;;49.43;44.63;;;;;;;-1.62;100.00;102859.50;4993004;28;20525;-49
2023/01/21 02:58:39;;;;;;;48.97;44.40;;;;;;;-1.60;100.00;102858.50;4993686;28;20793;-49
2023/01/21 03:01:16;;;;;;;49.20;44.40;;;;;;;-1.58;100.00;102854.06;4993480;28;20445;-46
2023/01/21 03:04:10;;;;;;;47.93;43.33;;;;;;;-1.55;100.00;102864.38;4993735;28;20426;-46
2023/01/21 03:06:47;;;;;;;48.77;44.27;;;;;;;-1.50;100.00;102870.28;4992874;28;20457;-44
2023/01/21 03:09:22;;;;;;;51.27;45.97;;;;;;;-1.44;100.00;102872.63;4993299;28;20438;-47
2023/01/21 03:12:13;;;;;;;49.03;44.40;;;;;;;-1.37;100.00;102873.19;4992515;28;20430;-46
2023/01/21 03:17:41;;;;;;;48.30;43.67;;;;;;;-1.22;100.00;102883.84;4992740;28;20472;-44
2023/01/21 03:20:12;;;;;;;51.20;45.43;;;;;;;-1.14;100.00;102893.97;4993415;28;20820;-47
2023/01/21 03:22:43;;;;;;;50.07;45.23;;;;;;;-1.07;100.00;102892.75;4993380;28;20497;-44
2023/01/21 03:25:13;;;;;;;52.63;47.77;;;;;;;-1.01;100.00;102892.47;4993100;28;20423;-46
2023/01/21 03:27:44;;;;;;;52.90;47.93;;;;;;;-0.95;100.00;102892.19;4992513;28;20472;-44
2023/01/21 03:30:14;;;;;;;52.17;47.10;;;;;;;-0.86;100.00;102893.53;4993229;28;20773;-44
2023/01/21 03:32:45;;;;;;;54.17;49.27;;;;;;;-0.82;100.00;102887.25;4993024;28;20433;-46
2023/01/21 03:35:20;;;;;;;48.27;44.30;;;;;;;-0.75;100.00;102893.91;4992877;28;20437;-47
2023/01/21 03:37:54;;;;;;;49.13;44.73;;;;;;;-0.68;100.00;102893.56;4992385;28;20466;-48
2023/01/21 03:40:26;;;;;;;50.80;46.30;;;;;;;-0.63;100.00;102899.41;4992779;28;20864;-48
2023/01/21 03:42:55;;;;;;;56.63;51.63;;;;;;;-0.54;100.00;102889.44;4992730;28;20442;-44
2023/01/21 03:45:32;;;;;;;51.37;47.00;;;;;;;-0.48;100.00;102907.50;4992676;28;20533;-46
2023/01/21 03:48:08;;;;;;;54.87;49.83;;;;;;;-0.44;100.00;102904.63;4992292;28;20466;-45
2023/01/21 03:50:41;;;;;;;56.77;51.97;;;;;;;-0.42;100.00;102905.44;4992733;28;20466;-43
2023/01/21 03:53:10;;;;;;;52.60;48.20;;;;;;;-0.38;100.00;102899.09;4992621;28;20872;-46
2023/01/21 03:55:37;;;;;;;53.30;48.87;;;;;;;-0.36;100.00;102894.63;4992435;28;20438;-44
2023/01/21 03:58:05;;;;;;;57.23;52.67;;;;;;;-0.33;100.00;102909.38;4991935;28;20473;-46
2023/01/21 04:00:33;;;;;;;55.50;51.10;;;;;;;-0.31;100.00;102899.66;4992717;28;20437;-46
2023/01/21 04:03:00;;;;;;;56.87;52.10;;;;;;;-0.33;100.00;102901.53;4992620;28;20446;-44
2023/01/21 04:05:28;;;;;;;54.40;49.80;;;;;;;-0.36;100.00;102910.34;4992276;28;20944;-45
2023/01/21 04:07:56;;;;;;;52.37;48.17;;;;;;;-0.39;100.00;102910.53;4991825;28;20472;-47
2023/01/21 04:10:25;;;;;;;50.93;46.87;;;;;;;-0.40;100.00;102913.22;4992409;28;20452;-45
2023/01/21 04:12:52;;;;;;;53.27;49.00;;;;;;;-0.43;100.00;102918.59;4992559;28;20433;-46
2023/01/21 04:15:20;;;;;;;51.17;46.70;;;;;;;-0.45;100.00;102920.44;4992119;28;20958;-44
2023/01/21 04:17:48;;;;;;;56.03;50.83;;;;;;;-0.44;100.00;102933.47;4991933;28;21070;-44
2023/01/21 04:20:16;;;;;;;52.40;48.10;;;;;;;-0.41;100.00;102927.22;4992286;28;20565;-46
2023/01/21 04:22:44;;;;;;;55.13;50.43;;;;;;;-0.35;100.00;102934.81;4992079;28;20438;-46
2023/01/21 04:25:11;;;;;;;57.77;52.70;;;;;;;-0.31;100.00;102929.34;4991975;28;20990;-45
2023/01/21 04:27:40;;;;;;;58.40;53.87;;;;;;;-0.26;100.00;102935.22;4991742;28;20841;-45
2023/01/21 04:30:09;;;;;;;63.40;58.87;;;;;;;-0.17;100.00;102928.69;4992333;28;20935;-44
2023/01/21 04:32:37;;;;;;;68.63;63.10;;;;;;;-0.08;100.00;102930.84;4992180;28;20473;-46
2023/01/21 04:35:05;;;;;;;75.93;70.83;;;;;;;-0.04;100.00;102922.78;4992223;28;20803;-44
2023/01/21 04:37:33;;;;;;;82.53;76.63;;;;;;;0.06;100.00;102933.63;4991751;28;20470;-44
2023/01/21 04:40:01;;;;;;;82.30;77.00;;;;;;;0.16;100.00;102926.16;4992029;28;20969;-44
2023/01/21 04:42:29;;;;;;;93.83;87.80;;;;;;;0.25;100.00;102933.59;4992022;28;20438;-44
2023/01/21 04:44:58;;;;;;;93.87;88.17;;;;;;;0.31;100.00;102934.13;4992059;28;20436;-45
2023/01/21 04:47:25;;;;;;;102.00;96.17;;;;;;;0.35;100.00;102940.09;4991416;28;20474;-46
2023/01/21 04:49:53;;;;;;;108.97;103.07;;;;;;;0.42;100.00;102944.94;4992103;28;20448;-43
2023/01/21 04:52:21;;;;;;;116.07;109.77;;;;;;;0.46;100.00;102946.47;4992054;28;20442;-44
2023/01/21 04:54:48;;;;;;;112.73;106.27;;;;;;;0.48;100.00;102946.38;4991931;28;20441;-45
2023/01/21 04:57:16;;;;;;;181.60;173.33;;;;;;;0.51;100.00;102956.72;4991406;28;20477;-45
2023/01/21 04:59:44;;;;;;;186.90;178.80;;;;;;;0.54;100.00;102953.94;4991969;28;20469;-44
2023/01/21 05:02:13;;;;;;;188.60;180.20;;;;;;;0.54;100.00;102967.06;4992221;28;20437;-45
2023/01/21 05:04:40;;;;;;;191.63;183.10;;;;;;;0.56;100.00;102970.50;4991914;28;20429;-44
2023/01/21 05:07:10;;;;;;;191.63;183.50;;;;;;;0.59;100.00;102974.75;4991517;28;20528;-46
2023/01/21 05:09:38;;;;;;;183.53;175.50;;;;;;;0.59;100.00;102982.63;4991789;28;20532;-46
2023/01/21 05:12:06;;;;;;;186.17;177.47;;;;;;;0.61;100.00;102988.63;4991984;28;20829;-46
2023/01/21 05:14:34;;;;;;;189.80;181.50;;;;;;;0.62;100.00;102996.44;4991615;28;20441;-44
2023/01/21 05:17:02;;;;;;;184.10;176.07;;;;;;;0.67;100.00;103004.06;4991457;28;20581;-44
2023/01/21 05:19:31;;;;;;;183.03;174.73;;;;;;;0.67;100.00;103006.69;4992040;28;20441;-47
2023/01/21 05:21:58;;;;;;;174.27;166.50;;;;;;;0.70;100.00;103004.78;4991975;28;20465;-50
2023/01/21 05:24:26;;;;;;;175.17;166.73;;;;;;;0.73;100.00;103015.13;4991668;28;20456;-49
2023/01/21 05:26:54;;;;;;;171.27;163.23;;;;;;;0.72;100.00;103008.16;4991109;28;20474;-50
2023/01/21 05:29:22;;;;;;;162.03;154.73;;;;;;;0.73;100.00;103009.88;4991969;28;20454;-45
2023/01/21 05:31:50;;;;;;;154.60;147.27;;;;;;;0.74;100.00;103018.59;4991731;28;20430;-44
2023/01/21 05:34:17;;;;;;;147.87;141.20;;;;;;;0.75;100.00;103028.16;4992206;28;20441;-48
2023/01/21 05:36:47;;;;;;;138.90;131.80;;;;;;;0.74;100.00;103019.47;4994777;28;20801;-50
2023/01/21 05:39:14;;;;;;;133.20;126.70;;;;;;;0.75;100.00;103020.28;4994982;28;20434;-44
2023/01/21 05:41:44;;;;;;;120.70;114.57;;;;;;;0.77;100.00;103021.06;4987096;28;21232;-44
2023/01/21 05:44:12;;;;;;;117.93;111.60;;;;;;;0.78;100.00;103023.59;4995011;28;20430;-45
2023/01/21 05:46:39;;;;;;;109.53;103.80;;;;;;;0.80;100.00;103024.41;4994616;28;20876;-47
2023/01/21 05:49:07;;;;;;;105.87;100.20;;;;;;;0.78;100.00;103028.84;4995103;28;20437;-46
2023/01/21 05:51:35;;;;;;;106.00;99.80;;;;;;;0.80;100.00;103039.31;4994947;28;20437;-44
2023/01/21 05:54:04;;;;;;;98.63;93.23;;;;;;;0.78;100.00;103036.72;4994607;28;20434;-46
2023/01/21 05:56:32;;;;;;;91.33;86.03;;;;;;;0.77;100.00;103037.69;4994551;28;20465;-44
2023/01/21 05:58:59;;;;;;;91.47;85.77;;;;;;;0.77;100.00;103042.94;4994787;28;20430;-44
2023/01/21 06:01:27;;;;;;;84.97;79.63;;;;;;;0.77;100.00;103044.72;4994863;28;20437;-45
2023/01/21 06:03:54;;;;;;;81.27;76.00;;;;;;;0.76;100.00;103048.25;4994680;28;20492;-45
2023/01/21 06:06:22;;;;;;;79.33;74.33;;;;;;;0.75;100.00;103052.66;4994111;28;20457;-46
2023/01/21 06:08:50;;;;;;;84.23;78.40;;;;;;;0.75;100.00;103054.41;4994495;28;20477;-45
2023/01/21 06:11:19;;;;;;;77.37;71.87;;;;;;;0.76;100.00;103064.00;4994444;28;20966;-44
2023/01/21 06:13:47;;;;;;;76.50;71.47;;;;;;;0.75;100.00;103064.91;4994665;28;20436;-45
2023/01/21 06:16:14;;;;;;;72.00;66.50;;;;;;;0.73;100.00;103069.41;4993955;28;20796;-44
2023/01/21 06:18:42;;;;;;;71.00;66.20;;;;;;;0.74;100.00;103063.25;4994330;28;20442;-47
2023/01/21 06:21:10;;;;;;;69.80;65.10;;;;;;;0.75;100.00;103064.91;4994313;28;20429;-46
2023/01/21 06:23:37;;;;;;;64.50;60.10;;;;;;;0.75;100.00;103078.06;4994310;28;20948;-44
2023/01/21 06:26:05;;;;;;;72.20;67.00;;;;;;;0.77;100.00;103073.59;4993756;28;20430;-44
2023/01/21 06:28:34;;;;;;;62.73;58.23;;;;;;;0.79;100.00;103077.84;4994100;28;21111;-44
2023/01/21 06:31:02;;;;;;;63.67;58.87;;;;;;;0.82;100.00;103089.97;4994092;28;20805;-43
2023/01/21 06:33:29;;;;;;;57.63;53.47;;;;;;;0.85;100.00;103087.19;4992797;28;20434;-44
2023/01/21 06:35:57;;;;;;;58.40;54.47;;;;;;;0.89;100.00;103091.38;4993803;28;20444;-44
2023/01/21 06:38:25;;;;;;;59.80;55.33;;;;;;;0.90;100.00;103096.53;4993484;28;20537;-46
2023/01/21 06:40:52;;;;;;;59.40;55.10;;;;;;;0.94;100.00;103102.50;4994014;28;20492;-44
2023/01/21 06:43:20;;;;;;;58.97;54.53;;;;;;;0.94;100.00;103094.59;4994108;28;20434;-43
2023/01/21 06:45:49;;;;;;;57.07;52.77;;;;;;;0.98;100.00;103102.28;4993677;28;20438;-44
2023/01/21 06:48:17;;;;;;;55.63;51.53;;;;;;;1.02;100.00;103105.56;4992731;28;20756;-44
2023/01/21 06:50:44;;;;;;;57.03;52.70;;;;;;;1.05;100.00;103110.66;4993844;28;20434;-44
2023/01/21 06:53:12;;;;;;;52.33;48.73;;;;;;;1.07;100.00;103114.94;4993971;28;20429;-44
2023/01/21 06:55:40;;;;;;;54.70;50.20;;;;;;;1.11;100.00;103121.72;4993439;28;20990;-45
2023/01/21 06:58:08;;;;;;;56.47;50.80;;;;;;;1.13;100.00;103126.91;4993168;28;20474;-44
2023/01/21 07:00:36;;;;;;;53.27;49.57;;;;;;;1.15;100.00;103124.19;4993557;28;20434;-44
2023/01/21 07:03:05;;;;;;;54.93;50.93;;;;;;;1.17;100.00;103131.06;4993397;28;20441;-45
2023/01/21 07:05:33;;;;;;;53.87;49.80;;;;;;;1.18;100.00;103137.19;4991376;28;20438;-46
2023/01/21 07:08:00;;;;;;;53.93;49.97;;;;;;;1.18;100.00;103129.31;4994454;28;20481;-44
2023/01/21 07:10:28;;;;;;;54.20;49.53;;;;;;;1.15;100.00;103143.44;4993091;28;20450;-45
2023/01/21 07:12:56;;;;;;;52.87;49.07;;;;;;;1.18;100.00;103142.44;4993349;28;20444;-45
2023/01/21 07:15:23;;;;;;;55.77;51.07;;;;;;;1.15;100.00;103151.34;4992995;28;20461;-45
2023/01/21 07:17:53;;;;;;;55.50;51.20;;;;;;;1.15;100.00;103156.59;4992242;28;20521;-47
2023/01/21 07:20:22;;;;;;;52.33;48.43;;;;;;;1.18;100.00;103164.31;4993305;28;20437;-44
2023/01/21 07:22:49;;;;;;;55.40;50.80;;;;;;;1.20;100.00;103164.22;4993174;28;20449;-44
2023/01/21 07:25:17;;;;;;;51.83;47.57;;;;;;;1.23;100.00;103175.44;4992777;28;20437;-44
2023/01/21 07:27:45;;;;;;;50.70;46.50;;;;;;;1.25;100.00;103170.97;4992271;28;21007;-44
2023/01/21 07:30:17;;;;;;;54.77;50.33;;;;;;;1.28;100.00;103175.22;4993118;28;20442;-44
2023/01/21 07:32:45;;;;;;;53.57;49.37;;;;;;;1.29;100.00;103190.06;4992657;28;20481;-44
2023/01/21 07:35:13;;;;;;;51.57;47.70;;;;;;;1.31;100.00;103190.84;4992789;28;20446;-45
2023/01/21 07:37:43;;;;;;;52.07;47.97;;;;;;;1.31;100.00;103191.69;4992205;28;20469;-47
2023/01/21 07:40:12;;;;;;;53.37;48.57;;;;;;;1.31;100.00;103189.06;4992427;28;20434;-44
2023/01/21 07:42:40;;;;;;;52.97;48.60;;;;;;;1.32;100.00;103195.16;4992847;28;20469;-45
2023/01/21 07:45:08;;;;;;;52.77;48.20;;;;;;;1.34;100.00;103202.06;4992765;28;20813;-44
2023/01/21 07:47:36;;;;;;;51.87;47.67;;;;;;;1.32;100.00;103201.25;4992166;28;20462;-46
2023/01/21 07:50:07;;;;;;;52.70;48.30;;;;;;;1.32;100.00;103206.53;4992485;28;20520;-46
2023/01/21 07:52:35;;;;;;;55.63;50.70;;;;;;;1.36;100.00;103215.13;4992636;28;20913;-46
2023/01/21 07:55:05;;;;;;;53.47;49.07;;;;;;;1.37;100.00;103215.06;4992361;28;20433;-46
2023/01/21 07:57:32;;;;;;;51.57;47.27;;;;;;;1.36;100.00;103223.84;4991753;28;20462;-43
2023/01/21 08:00:00;;;;;;;56.33;50.83;;;;;;;1.40;100.00;103216.66;4991964;28;20444;-46
2023/01/21 08:02:28;;;;;;;53.73;49.10;;;;;;;1.40;100.00;103228.03;4992337;28;20509;-44
2023/01/21 08:04:56;;;;;;;52.83;48.37;;;;;;;1.45;100.00;103227.78;4992173;28;20537;-44
2023/01/21 08:07:23;;;;;;;53.70;48.77;;;;;;;1.47;100.00;103224.16;5002851;28;21059;-43
2023/01/21 08:09:51;;;;;;;55.13;50.30;;;;;;;1.47;100.00;103228.56;5011286;28;20484;-46
2023/01/21 08:12:20;;;;;;;52.53;47.87;;;;;;;1.45;100.00;103226.03;5011960;28;20444;-44
2023/01/21 08:14:48;;;;;;;51.07;46.70;;;;;;;1.47;100.00;103237.31;5011100;28;20428;-44
2023/01/21 08:17:15;;;;;;;53.53;48.77;;;;;;;1.42;100.00;103238.47;5011332;28;20473;-45
2023/01/21 08:19:43;;;;;;;52.50;47.20;;;;;;;1.39;100.00;103247.38;5011677;28;20433;-48
2023/01/21 08:22:11;;;;;;;51.53;47.13;;;;;;;1.40;100.00;103254.34;5011744;28;20429;-43
2023/01/21 08:24:38;;;;;;;51.90;47.20;;;;;;;1.40;100.00;103254.34;4998836;28;20934;-44
2023/01/21 08:27:06;;;;;;;52.03;47.30;;;;;;;1.38;100.00;103257.94;4991741;28;20473;-45
2023/01/21 08:29:35;;;;;;;52.33;47.83;;;;;;;1.36;100.00;103260.66;4991577;28;20478;-48
2023/01/21 08:32:03;;;;;;;51.47;47.13;;;;;;;1.32;100.00;103267.00;4992150;28;20434;-44
2023/01/21 08:34:30;;;;;;;51.03;46.37;;;;;;;1.32;100.00;103266.13;4991747;28;20434;-44
2023/01/21 08:36:58;;;;;;;48.40;44.27;;;;;;;1.33;100.00;103257.31;4991778;28;20552;-46
2023/01/21 08:39:26;;;;;;;48.90;44.93;;;;;;;1.34;100.00;103269.56;4991342;28;20438;-44
2023/01/21 08:41:53;;;;;;;49.90;45.47;;;;;;;1.38;100.00;103268.47;4992039;28;20434;-44
2023/01/21 08:44:21;;;;;;;51.13;46.37;;;;;;;1.42;100.00;103273.50;4991199;28;20430;-44
2023/01/21 08:46:50;;;;;;;48.20;44.10;;;;;;;1.43;100.00;103267.31;4991493;28;21079;-44
2023/01/21 08:49:18;;;;;;;48.53;44.60;;;;;;;1.43;100.00;103269.97;4991787;28;20496;-44
2023/01/21 08:51:46;;;;;;;49.50;45.27;;;;;;;1.42;100.00;103267.38;4992114;28;20434;-46
2023/01/21 08:54:13;;;;;;;52.00;47.20;;;;;;;1.39;100.00;103271.03;4991858;28;20434;-44
2023/01/21 08:56:41;;;;;;;51.10;46.63;;;;;;;1.39;100.00;103278.91;4991295;28;20523;-43
2023/01/21 08:59:09;;;;;;;52.43;47.57;;;;;;;1.38;100.00;103282.47;4991583;28;20426;-47
2023/01/21 09:01:39;;;;;;;52.50;48.03;;;;;;;1.41;100.00;103281.44;4991661;28;20480;-46
2023/01/21 09:04:09;;;;;;;55.33;50.23;;;;;;;1.44;100.00;103295.31;4991695;28;20453;-44
2023/01/21 09:06:37;;;;;;;56.00;50.50;;;;;;;1.46;100.00;103296.09;4991286;28;20551;-48
2023/01/21 09:09:04;;;;;;;53.90;49.40;;;;;;;1.49;100.00;103295.91;4992175;28;20560;-44
2023/01/21 09:11:33;;;;;;;56.70;51.63;;;;;;;1.48;100.00;103302.13;5003938;28;20448;-44
2023/01/21 09:14:02;;;;;;;52.50;47.80;;;;;;;1.50;100.00;103302.88;5014449;28;20432;-44
2023/01/21 09:16:31;;;;;;;51.33;46.77;;;;;;;1.50;100.00;103310.78;5014340;28;20551;-44
2023/01/21 09:18:59;;;;;;;52.07;47.77;;;;;;;1.53;100.00;103309.78;5015370;28;20437;-44
2023/01/21 09:21:29;;;;;;;52.40;47.20;;;;;;;1.57;100.00;103314.81;5015124;28;20433;-43
2023/01/21 09:23:57;;;;;;;50.93;46.73;;;;;;;1.61;100.00;103318.97;5014926;28;20432;-45
2023/01/21 09:26:24;;;;;;;50.07;45.50;;;;;;;1.76;100.00;103320.03;4997187;28;20491;-45
2023/01/21 09:28:54;;;;;;;54.40;48.97;;;;;;;1.89;100.00;103326.34;4994879;28;20477;-44
2023/01/21 09:31:23;;;;;;;56.43;50.97;;;;;;;2.03;100.00;103323.84;4995509;28;20533;-47
2023/01/21 09:33:53;;;;;;;56.30;50.97;;;;;;;2.13;100.00;103325.09;4995196;28;20438;-44
2023/01/21 09:36:23;;;;;;;56.00;51.17;;;;;;;2.14;100.00;103318.06;4994739;28;20453;-45
2023/01/21 09:38:52;;;;;;;54.80;49.80;;;;;;;2.12;100.00;103331.28;4994403;28;20434;-44
2023/01/21 09:41:26;;;;;;;54.97;50.10;;;;;;;2.17;100.00;103328.44;4995180;28;20430;-45
2023/01/21 09:44:14;;;;;;;53.73;49.33;;;;;;;2.21;100.00;103332.63;4995276;28;20432;-44
2023/01/21 09:46:49;;;;;;;53.77;48.93;;;;;;;2.23;100.00;103328.97;4994704;28;20492;-46
2023/01/21 09:49:22;;;;;;;49.00;44.80;;;;;;;2.28;100.00;103335.75;4994913;28;20908;-46
2023/01/21 09:51:55;;;;;;;50.77;46.57;;;;;;;2.41;100.00;103334.19;4994899;28;20438;-44
2023/01/21 09:54:27;;;;;;;50.57;46.00;;;;;;;2.48;100.00;103340.84;4994942;28;20430;-44
2023/01/21 09:57:18;;;;;;;50.20;45.93;;;;;;;2.52;100.00;103345.88;4994634;28;20898;-44
2023/01/21 09:59:56;;;;;;;48.97;45.13;;;;;;;2.59;100.00;103334.06;4994820;28;20430;-45
2023/01/21 10:02:30;;;;;;;45.90;42.00;;;;;;;2.56;100.00;103343.91;4995031;28;20441;-44
2023/01/21 10:05:17;;;;;;;48.30;44.47;;;;;;;2.57;100.00;103345.63;4994658;28;20426;-45
2023/01/21 10:07:53;;;;;;;48.93;45.00;;;;;;;2.65;100.00;103346.91;4994295;28;20836;-48
2023/01/21 10:10:32;;;;;;;44.43;41.07;;;;;;;2.68;100.00;103352.03;4994351;28;20892;-44
2023/01/21 10:13:10;;;;;;;48.87;45.10;;;;;;;2.71;100.00;103349.22;4994806;28;20446;-44
2023/01/21 10:15:48;;;;;;;44.67;41.40;;;;;;;2.71;100.00;103345.75;4994022;28;20428;-45
2023/01/21 10:18:19;;;;;;;45.97;42.50;;;;;;;2.78;100.00;103349.72;4993954;28;20501;-47
2023/01/21 10:20:51;;;;;;;47.73;44.03;;;;;;;2.78;100.00;103347.09;4993874;28;20433;-44
2023/01/21 10:23:24;;;;;;;49.80;45.60;;;;;;;2.78;100.00;103344.44;4994708;28;20425;-46
2023/01/21 10:25:54;;;;;;;51.27;46.90;;;;;;;2.84;100.00;103357.31;4994281;28;20429;-44
2023/01/21 10:28:24;;;;;;;49.40;45.60;;;;;;;2.83;100.00;103349.50;4993744;28;20457;-46
2023/01/21 10:30:54;;;;;;;50.43;46.10;;;;;;;2.85;100.00;103352.88;4994183;28;20473;-46
2023/01/21 10:33:25;;;;;;;46.37;42.77;;;;;;;2.86;100.00;103350.19;4994450;28;20440;-44
2023/01/21 10:36:07;;;;;;;45.63;42.33;;;;;;;2.79;100.00;103347.03;4993890;28;20982;-46
2023/01/21 10:38:42;;;;;;;45.50;42.00;;;;;;;2.75;100.00;103342.84;4993998;28;20453;-44
2023/01/21 10:41:30;;;;;;;45.37;42.07;;;;;;;2.71;100.00;103348.38;4994065;28;20452;-45
2023/01/21 10:44:03;;;;;;;44.90;41.53;;;;;;;2.63;100.00;103343.50;4994095;28;20788;-43
2023/01/21 10:46:38;;;;;;;45.33;41.87;;;;;;;2.54;100.00;103341.34;4993501;28;20542;-47
2023/01/21 10:49:20;;;;;;;49.50;45.33;;;;;;;2.54;100.00;103338.72;4994010;28;20433;-44
2023/01/21 10:51:56;;;;;;;44.00;40.70;;;;;;;2.69;100.00;103344.94;4993873;28;20801;-46
2023/01/21 10:54:35;;;;;;;48.23;44.47;;;;;;;2.79;100.00;103341.75;4993839;28;20425;-44
2023/01/21 10:57:15;;;;;;;44.47;41.07;;;;;;;2.89;100.00;103341.25;4993373;28;20473;-48
2023/01/21 10:59:43;;;;;;;44.37;41.20;;;;;;;2.93;100.00;103342.78;4993799;28;20797;-47
2023/01/21 11:02:20;;;;;;;44.27;41.10;;;;;;;3.01;100.00;103338.81;4993559;28;20438;-44
2023/01/21 11:04:49;;;;;;;43.07;40.10;;;;;;;3.06;100.00;103341.16;4993626;28;20464;-44
2023/01/21 11:07:20;;;;;;;42.37;39.47;;;;;;;3.01;100.00;103346.72;4992978;28;21053;-45
2023/01/21 11:09:48;;;;;;;42.57;39.87;;;;;;;3.05;100.00;103340.31;4993412;28;20473;-43
2023/01/21 11:12:20;;;;;;;44.27;41.07;;;;;;;3.13;100.00;103337.28;4993583;28;20445;-44
2023/01/21 11:14:50;;;;;;;42.60;39.70;;;;;;;3.15;100.00;103348.56;4993185;28;20852;-44
2023/01/21 11:17:33;;;;;;;43.13;40.23;;;;;;;3.23;100.00;103338.44;4992766;28;21240;-44
2023/01/21 11:20:02;;;;;;;43.03;40.03;;;;;;;3.31;100.00;103333.59;4993266;28;20422;-44
2023/01/21 11:22:32;;;;;;;42.53;39.83;;;;;;;3.41;100.00;103326.00;4993398;28;20867;-44
2023/01/21 11:25:01;;;;;;;42.20;39.50;;;;;;;3.50;100.00;103326.31;4992786;28;20461;-44